createdAt,value
2022-12-28T00:00:45.658Z,63.38
2022-12-28T00:02:03.080Z,61.87
2022-12-28T00:03:03.630Z,60.47
2022-12-28T00:04:05.682Z,59.18
2022-12-28T00:05:06.137Z,57.58
2022-12-28T00:06:06.839Z,56.66
2022-12-28T00:07:07.075Z,56.73
2022-12-28T00:08:07.355Z,57.36
2022-12-28T00:09:10.229Z,58.22
2022-12-28T00:10:10.856Z,58.75
2022-12-28T00:11:20.469Z,59.68
2022-12-28T00:12:29.432Z,61.08
2022-12-28T00:13:30.882Z,62.00
2022-12-28T00:14:31.455Z,63.37
2022-12-28T00:15:31.868Z,64.88
2022-12-28T00:16:33.818Z,65.80
2022-12-28T00:17:34.521Z,65.69
2022-12-28T00:18:35.308Z,64.90
2022-12-28T00:19:35.597Z,63.73
2022-12-28T00:20:36.045Z,62.22
2022-12-28T00:21:36.623Z,61.35
2022-12-28T00:22:37.059Z,60.38
2022-12-28T00:23:37.542Z,59.54
2022-12-28T00:24:37.922Z,58.38
2022-12-28T00:25:38.162Z,56.97
2022-12-28T00:26:38.495Z,56.51
2022-12-28T00:27:39.149Z,56.98
2022-12-28T00:28:40.500Z,57.89
2022-12-28T00:29:40.757Z,58.46
2022-12-28T00:30:41.120Z,59.67
2022-12-28T00:31:41.915Z,60.74
2022-12-28T00:32:42.209Z,61.14
2022-12-28T00:33:42.651Z,61.89
2022-12-28T00:34:46.314Z,62.75
2022-12-28T00:35:52.269Z,64.14
2022-12-28T00:37:11.290Z,65.75
2022-12-28T00:38:12.902Z,65.64
2022-12-28T00:39:13.632Z,64.73
2022-12-28T00:40:18.896Z,63.64
2022-12-28T00:41:22.464Z,62.06
2022-12-28T00:42:22.887Z,61.24
2022-12-28T00:43:23.247Z,60.18
2022-12-28T00:44:25.160Z,59.06
2022-12-28T00:45:25.687Z,57.99
2022-12-28T00:46:26.149Z,56.90
2022-12-28T00:47:26.706Z,57.09
2022-12-28T00:48:27.656Z,57.66
2022-12-28T00:49:28.304Z,58.18
2022-12-28T00:50:28.625Z,59.31
2022-12-28T00:51:29.034Z,60.26
2022-12-28T00:52:29.286Z,61.63
2022-12-28T00:53:29.711Z,61.91
2022-12-28T00:54:30.235Z,62.73
2022-12-28T00:55:32.563Z,64.65
2022-12-28T00:56:32.832Z,66.11
2022-12-28T00:57:33.206Z,66.53
2022-12-28T00:58:33.700Z,66.38
2022-12-28T00:59:34.190Z,65.47
2022-12-28T01:00:36.027Z,64.21
2022-12-28T01:01:38.767Z,63.33
2022-12-28T01:02:39.081Z,62.05
2022-12-28T01:03:39.645Z,61.09
2022-12-28T01:04:39.895Z,60.25
2022-12-28T01:05:40.649Z,59.80
2022-12-28T01:06:42.156Z,58.88
2022-12-28T01:07:42.697Z,57.62
2022-12-28T01:08:44.042Z,56.97
2022-12-28T01:09:44.796Z,57.57
2022-12-28T01:10:45.647Z,58.54
2022-12-28T01:11:46.028Z,59.22
2022-12-28T01:12:46.357Z,60.21
2022-12-28T01:13:47.712Z,61.11
2022-12-28T01:14:48.608Z,62.07
2022-12-28T01:15:49.050Z,62.95
2022-12-28T01:16:49.716Z,64.79
2022-12-28T01:17:50.568Z,66.21
2022-12-28T01:18:52.370Z,66.46
2022-12-28T01:19:55.316Z,65.85
2022-12-28T01:20:55.604Z,64.80
2022-12-28T01:21:57.314Z,63.75
2022-12-28T01:22:57.567Z,62.86
2022-12-28T01:23:59.389Z,61.43
2022-12-28T01:24:59.681Z,60.51
2022-12-28T01:26:03.386Z,59.90
2022-12-28T01:27:03.793Z,59.02
2022-12-28T01:28:04.157Z,57.55
2022-12-28T01:29:04.484Z,57.07
2022-12-28T01:30:06.010Z,57.43
2022-12-28T01:31:08.067Z,57.98
2022-12-28T01:32:08.563Z,58.91
2022-12-28T01:33:08.953Z,59.83
2022-12-28T01:34:09.398Z,60.41
2022-12-28T01:35:09.750Z,61.89
2022-12-28T01:36:14.745Z,62.97
2022-12-28T01:37:15.166Z,64.99
2022-12-28T01:38:15.884Z,66.32
2022-12-28T01:39:16.411Z,66.40
2022-12-28T01:40:16.691Z,65.75
2022-12-28T01:41:18.244Z,64.59
2022-12-28T01:42:19.655Z,63.55
2022-12-28T01:43:29.723Z,62.69
2022-12-28T01:44:40.122Z,61.47
2022-12-28T01:45:42.722Z,60.81
2022-12-28T01:46:49.508Z,60.11
2022-12-28T01:47:54.426Z,58.84
2022-12-28T01:48:59.770Z,57.36
2022-12-28T01:50:08.752Z,56.87
2022-12-28T01:51:09.157Z,57.29
2022-12-28T01:52:15.947Z,58.00
2022-12-28T01:53:18.734Z,59.09
2022-12-28T01:54:23.733Z,60.21
2022-12-28T01:55:28.567Z,61.58
2022-12-28T01:56:29.333Z,62.07
2022-12-28T01:57:33.860Z,62.65
2022-12-28T01:58:35.109Z,64.93
2022-12-28T01:59:39.792Z,66.27
2022-12-28T02:00:40.597Z,66.78
2022-12-28T02:01:41.449Z,66.32
2022-12-28T02:02:45.621Z,65.56
2022-12-28T02:03:46.264Z,64.62
2022-12-28T02:04:47.641Z,63.63
2022-12-28T02:05:50.492Z,62.27
2022-12-28T02:06:51.747Z,61.17
2022-12-28T02:08:12.569Z,60.24
2022-12-28T02:09:17.230Z,59.59
2022-12-28T02:10:42.619Z,58.67
2022-12-28T02:11:40.407Z,57.72
2022-12-28T02:12:41.472Z,57.60
2022-12-28T02:13:43.788Z,57.99
2022-12-28T02:14:46.012Z,58.98
2022-12-28T02:15:47.921Z,60.13
2022-12-28T02:16:49.523Z,61.18
2022-12-28T02:17:50.350Z,62.96
2022-12-28T02:18:51.428Z,64.87
2022-12-28T02:19:52.284Z,65.79
2022-12-28T02:21:11.150Z,65.99
2022-12-28T02:22:30.416Z,65.25
2022-12-28T02:23:30.848Z,63.80
2022-12-28T02:24:31.390Z,62.96
2022-12-28T02:25:44.165Z,62.02
2022-12-28T02:26:50.587Z,60.97
2022-12-28T02:28:10.893Z,60.06
2022-12-28T02:29:19.339Z,59.58
2022-12-28T02:30:20.182Z,58.72
2022-12-28T02:31:41.028Z,57.49
2022-12-28T02:33:04.113Z,57.18
2022-12-28T02:34:20.336Z,58.11
2022-12-28T02:35:44.903Z,59.27
2022-12-28T02:36:50.457Z,59.92
2022-12-28T02:37:53.207Z,61.05
2022-12-28T02:38:58.507Z,62.74
2022-12-28T02:40:04.278Z,64.29
2022-12-28T02:41:08.774Z,65.71
2022-12-28T02:42:09.895Z,65.94
2022-12-28T02:43:11.908Z,65.40
2022-12-28T02:44:32.712Z,64.30
2022-12-28T02:45:55.002Z,63.19
2022-12-28T02:47:13.755Z,61.79
2022-12-28T02:48:34.922Z,60.96
2022-12-28T02:49:54.212Z,60.23
2022-12-28T02:51:04.796Z,59.52
2022-12-28T02:52:19.872Z,58.50
2022-12-28T02:53:33.770Z,57.20
2022-12-28T02:55:10.038Z,57.39
2022-12-28T02:56:23.512Z,58.59
2022-12-28T02:57:43.257Z,60.46
2022-12-28T02:59:02.214Z,61.61
2022-12-28T03:00:02.747Z,62.87
2022-12-28T03:01:03.319Z,64.73
2022-12-28T03:02:33.718Z,65.96
2022-12-28T03:03:34.495Z,66.07
2022-12-28T03:04:58.008Z,65.32
2022-12-28T03:06:29.992Z,64.19
2022-12-28T03:08:10.419Z,62.26
2022-12-28T03:09:26.215Z,61.36
2022-12-28T03:10:47.684Z,60.34
2022-12-28T03:11:53.152Z,59.38
2022-12-28T03:13:00.918Z,58.39
2022-12-28T03:14:08.310Z,56.99
2022-12-28T03:15:29.308Z,57.39
2022-12-28T03:17:18.691Z,58.41
2022-12-28T03:18:40.159Z,60.10
2022-12-28T03:20:11.116Z,61.38
2022-12-28T03:21:31.277Z,62.59
2022-12-28T03:22:53.609Z,64.37
2022-12-28T03:24:14.819Z,65.61
2022-12-28T03:25:38.488Z,65.36
2022-12-28T03:27:04.220Z,64.03
2022-12-28T03:28:29.275Z,62.76
2022-12-28T03:29:53.761Z,61.23
2022-12-28T03:31:07.107Z,59.96
2022-12-28T03:32:21.567Z,59.20
2022-12-28T03:33:30.097Z,57.66
2022-12-28T03:34:44.497Z,56.79
2022-12-28T03:36:08.604Z,57.57
2022-12-28T03:37:50.846Z,58.81
2022-12-28T03:40:52.897Z,61.86
2022-12-28T03:42:34.661Z,63.75
2022-12-28T03:44:16.076Z,65.92
2022-12-28T03:45:46.457Z,65.84
2022-12-28T03:47:27.338Z,64.32
2022-12-28T03:48:44.483Z,62.47
2022-12-28T03:50:01.601Z,61.66
2022-12-28T03:51:07.258Z,60.66
2022-12-28T03:52:13.847Z,59.52
2022-12-28T03:53:31.296Z,58.10
2022-12-28T03:54:37.183Z,57.09
2022-12-28T03:55:45.301Z,57.52
2022-12-28T03:57:03.188Z,58.36
2022-12-28T03:58:43.620Z,58.74
2022-12-28T04:00:04.276Z,60.88
2022-12-28T04:01:16.417Z,61.97
2022-12-28T04:02:19.302Z,63.03
2022-12-28T04:03:20.435Z,64.46
2022-12-28T04:04:20.857Z,65.68
2022-12-28T04:05:22.395Z,66.09
2022-12-28T04:06:22.879Z,65.53
2022-12-28T04:07:24.638Z,64.60
2022-12-28T04:08:25.413Z,63.47
2022-12-28T04:09:26.185Z,62.07
2022-12-28T04:10:26.917Z,61.17
2022-12-28T04:11:27.423Z,60.34
2022-12-28T04:12:28.357Z,59.41
2022-12-28T04:13:42.046Z,57.97
2022-12-28T04:14:45.490Z,57.19
2022-12-28T04:16:00.024Z,57.36
2022-12-28T04:17:01.793Z,58.08
2022-12-28T04:18:02.074Z,59.02
2022-12-28T04:19:02.644Z,59.45
2022-12-28T04:20:03.839Z,60.45
2022-12-28T04:21:04.660Z,61.49
2022-12-28T04:22:05.048Z,62.74
2022-12-28T04:23:07.625Z,63.97
2022-12-28T04:24:07.945Z,65.57
2022-12-28T04:25:09.360Z,66.02
2022-12-28T04:26:11.096Z,65.64
2022-12-28T04:27:11.801Z,64.55
2022-12-28T04:28:12.112Z,63.61
2022-12-28T04:29:53.420Z,61.81
2022-12-28T04:30:54.353Z,60.33
2022-12-28T04:31:55.546Z,59.53
2022-12-28T04:32:56.027Z,58.15
2022-12-28T04:33:57.752Z,56.61
2022-12-28T04:34:58.232Z,56.20
2022-12-28T04:36:12.126Z,56.47
2022-12-28T04:37:14.763Z,57.70
2022-12-28T04:38:16.329Z,58.23
2022-12-28T04:39:16.643Z,59.30
2022-12-28T04:40:16.944Z,60.58
2022-12-28T04:41:17.334Z,61.51
2022-12-28T04:42:17.812Z,62.94
2022-12-28T04:43:18.060Z,64.13
2022-12-28T04:44:18.323Z,65.39
2022-12-28T04:45:22.233Z,65.85
2022-12-28T04:46:24.210Z,65.41
2022-12-28T04:47:24.567Z,64.61
2022-12-28T04:48:25.506Z,63.64
2022-12-28T04:49:25.740Z,62.38
2022-12-28T04:50:27.144Z,61.56
2022-12-28T04:51:28.978Z,60.80
2022-12-28T04:52:29.304Z,59.68
2022-12-28T04:53:29.492Z,58.53
2022-12-28T04:54:29.778Z,57.28
2022-12-28T04:55:32.037Z,57.00
2022-12-28T04:56:33.909Z,57.03
2022-12-28T04:57:34.937Z,57.73
2022-12-28T04:58:36.583Z,58.77
2022-12-28T04:59:36.841Z,59.57
2022-12-28T05:00:37.140Z,60.65
2022-12-28T05:01:37.748Z,61.67
2022-12-28T05:02:38.268Z,62.28
2022-12-28T05:03:40.382Z,63.30
2022-12-28T05:04:40.673Z,65.20
2022-12-28T05:05:41.020Z,65.88
2022-12-28T05:06:41.328Z,65.73
2022-12-28T05:07:41.638Z,65.04
2022-12-28T05:08:42.969Z,64.19
2022-12-28T05:09:43.343Z,63.14
2022-12-28T05:10:43.620Z,62.18
2022-12-28T05:11:43.886Z,61.31
2022-12-28T05:12:44.301Z,60.49
2022-12-28T05:13:45.017Z,59.71
2022-12-28T05:14:45.652Z,58.86
2022-12-28T05:15:45.911Z,57.50
2022-12-28T05:16:49.609Z,56.72
2022-12-28T05:17:50.167Z,56.82
2022-12-28T05:18:50.532Z,57.68
2022-12-28T05:19:50.821Z,58.43
2022-12-28T05:20:57.544Z,59.04
2022-12-28T05:21:57.893Z,60.42
2022-12-28T05:22:58.348Z,61.72
2022-12-28T05:23:59.061Z,62.76
2022-12-28T05:24:59.366Z,64.01
2022-12-28T05:25:59.727Z,65.36
2022-12-28T05:27:00.942Z,65.54
2022-12-28T05:28:01.388Z,65.41
2022-12-28T05:29:02.554Z,64.58
2022-12-28T05:30:03.212Z,63.33
2022-12-28T05:31:09.577Z,62.59
2022-12-28T05:32:09.834Z,61.44
2022-12-28T05:33:10.268Z,60.79
2022-12-28T05:34:10.535Z,60.02
2022-12-28T05:35:10.823Z,59.16
2022-12-28T05:36:15.972Z,57.95
2022-12-28T05:37:21.787Z,56.91
2022-12-28T05:38:22.648Z,57.15
2022-12-28T05:39:23.527Z,57.89
2022-12-28T05:40:23.879Z,58.61
2022-12-28T05:41:27.027Z,59.66
2022-12-28T05:42:27.580Z,60.34
2022-12-28T05:43:30.135Z,61.77
2022-12-28T05:44:30.527Z,64.27
2022-12-28T05:45:30.898Z,65.42
2022-12-28T05:46:32.681Z,66.17
2022-12-28T05:47:33.320Z,65.93
2022-12-28T05:48:35.046Z,65.22
2022-12-28T05:49:35.875Z,64.43
2022-12-28T05:50:36.191Z,62.76
2022-12-28T05:51:37.995Z,62.03
2022-12-28T05:52:40.141Z,60.96
2022-12-28T05:53:41.657Z,60.21
2022-12-28T05:54:41.847Z,59.63
2022-12-28T05:55:42.887Z,58.70
2022-12-28T05:56:43.134Z,57.42
2022-12-28T05:57:43.406Z,57.07
2022-12-28T05:58:45.014Z,57.78
2022-12-28T05:59:45.404Z,57.94
2022-12-28T06:00:45.710Z,59.47
2022-12-28T06:01:46.171Z,60.65
2022-12-28T06:02:46.640Z,61.26
2022-12-28T06:03:48.320Z,61.55
2022-12-28T06:04:48.548Z,63.16
2022-12-28T06:05:49.835Z,64.12
2022-12-28T06:06:50.161Z,65.54
2022-12-28T06:07:51.459Z,65.80
2022-12-28T06:08:53.014Z,65.17
2022-12-28T06:09:53.243Z,64.20
2022-12-28T06:10:53.560Z,63.14
2022-12-28T06:11:53.888Z,61.88
2022-12-28T06:12:54.272Z,60.87
2022-12-28T06:13:56.826Z,60.11
2022-12-28T06:14:57.063Z,59.60
2022-12-28T06:15:57.607Z,58.47
2022-12-28T06:16:57.996Z,57.11
2022-12-28T06:17:58.385Z,56.57
2022-12-28T06:18:59.270Z,56.68
2022-12-28T06:19:59.612Z,57.56
2022-12-28T06:21:06.045Z,58.50
2022-12-28T06:22:06.507Z,59.48
2022-12-28T06:23:06.846Z,60.32
2022-12-28T06:24:08.592Z,61.39
2022-12-28T06:25:09.263Z,62.21
2022-12-28T06:26:11.240Z,63.38
2022-12-28T06:27:11.615Z,65.13
2022-12-28T06:28:11.876Z,66.23
2022-12-28T06:29:12.257Z,66.14
2022-12-28T06:30:12.807Z,65.42
2022-12-28T06:31:23.955Z,64.54
2022-12-28T06:32:24.311Z,63.21
2022-12-28T06:33:25.514Z,62.26
2022-12-28T06:34:27.273Z,61.28
2022-12-28T06:35:27.690Z,60.19
2022-12-28T06:36:28.101Z,59.36
2022-12-28T06:37:28.826Z,58.29
2022-12-28T06:38:32.277Z,57.66
2022-12-28T06:39:32.774Z,57.48
2022-12-28T06:41:02.539Z,57.97
2022-12-28T06:41:53.707Z,59.36
2022-12-28T06:42:54.528Z,60.23
2022-12-28T06:43:55.447Z,61.22
2022-12-28T06:44:56.374Z,62.48
2022-12-28T06:45:57.088Z,64.10
2022-12-28T06:46:57.555Z,65.40
2022-12-28T06:47:57.844Z,65.93
2022-12-28T06:48:58.402Z,65.47
2022-12-28T06:49:58.978Z,64.67
2022-12-28T06:51:01.571Z,63.42
2022-12-28T06:52:02.191Z,62.45
2022-12-28T06:53:02.442Z,61.90
2022-12-28T06:54:02.898Z,60.99
2022-12-28T06:55:03.424Z,60.00
2022-12-28T06:56:05.877Z,59.14
2022-12-28T06:57:06.184Z,57.72
2022-12-28T06:58:06.522Z,56.83
2022-12-28T06:59:07.352Z,57.47
2022-12-28T07:00:08.211Z,58.51
2022-12-28T07:01:10.151Z,58.77
2022-12-28T07:02:10.990Z,59.62
2022-12-28T07:03:11.334Z,60.56
2022-12-28T07:04:12.359Z,61.74
2022-12-28T07:05:12.938Z,62.55
2022-12-28T07:06:15.759Z,63.85
2022-12-28T07:07:16.019Z,65.56
2022-12-28T07:08:17.416Z,66.09
2022-12-28T07:09:17.858Z,65.64
2022-12-28T07:10:18.130Z,64.88
2022-12-28T07:11:20.468Z,63.70
2022-12-28T07:12:20.877Z,62.79
2022-12-28T07:13:27.831Z,61.72
2022-12-28T07:14:28.757Z,60.81
2022-12-28T07:15:29.241Z,59.78
2022-12-28T07:17:32.553Z,58.26
2022-12-28T07:18:33.604Z,57.25
2022-12-28T07:19:34.083Z,57.28
2022-12-28T07:20:40.196Z,57.53
2022-12-28T07:21:41.259Z,58.59
2022-12-28T07:22:41.562Z,59.69
2022-12-28T07:23:42.029Z,60.54
2022-12-28T07:24:42.528Z,61.04
2022-12-28T07:25:43.101Z,61.86
2022-12-28T07:26:43.348Z,62.61
2022-12-28T07:27:43.651Z,63.78
2022-12-28T07:28:45.335Z,65.17
2022-12-28T07:29:45.548Z,65.89
2022-12-28T07:30:45.922Z,65.64
2022-12-28T07:31:46.210Z,64.83
2022-12-28T07:32:46.555Z,64.09
2022-12-28T07:33:48.107Z,63.17
2022-12-28T07:34:48.367Z,62.04
2022-12-28T07:35:48.589Z,61.21
2022-12-28T07:36:49.049Z,60.41
2022-12-28T07:37:49.852Z,59.60
2022-12-28T07:38:50.556Z,58.34
2022-12-28T07:39:50.847Z,57.39
2022-12-28T07:40:51.155Z,57.17
2022-12-28T07:41:51.546Z,57.32
2022-12-28T07:42:55.071Z,57.88
2022-12-28T07:43:55.773Z,58.92
2022-12-28T07:44:56.133Z,59.99
2022-12-28T07:46:07.782Z,61.23
2022-12-28T07:47:08.248Z,61.94
2022-12-28T07:48:08.474Z,63.23
2022-12-28T07:49:08.674Z,64.96
2022-12-28T07:50:09.276Z,65.99
2022-12-28T07:51:12.632Z,66.13
2022-12-28T07:52:13.035Z,65.47
2022-12-28T07:53:17.421Z,64.56
2022-12-28T07:54:22.355Z,63.32
2022-12-28T07:55:24.172Z,61.84
2022-12-28T07:56:26.041Z,60.87
2022-12-28T07:57:26.982Z,60.18
2022-12-28T07:58:27.687Z,59.58
2022-12-28T07:59:31.119Z,58.59
2022-12-28T08:00:31.945Z,57.22
2022-12-28T08:01:34.489Z,56.96
2022-12-28T08:02:35.157Z,57.41
2022-12-28T08:03:36.238Z,58.26
2022-12-28T08:04:36.829Z,59.11
2022-12-28T08:05:38.226Z,59.73
2022-12-28T08:06:40.765Z,60.15
2022-12-28T08:07:41.128Z,61.02
2022-12-28T08:08:44.023Z,62.02
2022-12-28T08:09:44.277Z,62.97
2022-12-28T08:10:44.524Z,64.88
2022-12-28T08:11:48.059Z,66.22
2022-12-28T08:12:49.253Z,66.31
2022-12-28T08:13:50.944Z,65.95
2022-12-28T08:14:51.211Z,65.29
2022-12-28T08:15:55.058Z,64.20
2022-12-28T08:16:55.547Z,63.10
2022-12-28T08:17:56.110Z,61.38
2022-12-28T08:18:56.740Z,60.48
2022-12-28T08:19:57.311Z,59.91
2022-12-28T08:21:05.833Z,58.96
2022-12-28T08:22:06.331Z,57.22
2022-12-28T08:23:06.598Z,56.81
2022-12-28T08:24:09.352Z,56.84
2022-12-28T08:25:09.744Z,57.58
2022-12-28T08:26:18.346Z,58.37
2022-12-28T08:27:18.806Z,59.39
2022-12-28T08:28:19.247Z,59.99
2022-12-28T08:29:21.306Z,61.26
2022-12-28T08:30:21.664Z,61.66
2022-12-28T08:31:42.160Z,62.20
2022-12-28T08:32:42.407Z,63.71
2022-12-28T08:33:43.506Z,65.26
2022-12-28T08:34:43.808Z,65.91
2022-12-28T08:35:44.124Z,65.32
2022-12-28T08:36:44.658Z,64.64
2022-12-28T08:37:44.881Z,63.32
2022-12-28T08:38:46.646Z,61.76
2022-12-28T08:39:46.943Z,60.73
2022-12-28T08:40:57.368Z,59.94
2022-12-28T08:41:58.281Z,58.29
2022-12-28T08:42:58.996Z,56.77
2022-12-28T08:43:59.824Z,56.46
2022-12-28T08:45:00.183Z,56.82
2022-12-28T08:46:02.439Z,57.69
2022-12-28T08:47:02.984Z,59.28
2022-12-28T08:48:03.638Z,59.76
2022-12-28T08:49:05.202Z,60.68
2022-12-28T08:50:06.230Z,61.71
2022-12-28T08:51:08.660Z,62.38
2022-12-28T08:52:09.407Z,63.08
2022-12-28T08:53:09.728Z,64.25
2022-12-28T08:54:13.145Z,64.89
2022-12-28T08:55:13.674Z,64.45
2022-12-28T08:56:29.011Z,63.33
2022-12-28T08:57:29.337Z,61.62
2022-12-28T08:58:29.539Z,60.93
2022-12-28T08:59:29.827Z,60.10
2022-12-28T09:00:30.177Z,59.17
2022-12-28T09:01:42.590Z,57.72
2022-12-28T09:02:44.776Z,56.50
2022-12-28T09:03:47.071Z,56.70
2022-12-28T09:04:47.410Z,57.51
2022-12-28T09:05:54.292Z,58.24
2022-12-28T09:06:54.992Z,59.52
2022-12-28T09:07:59.548Z,60.24
2022-12-28T09:09:06.141Z,60.45
2022-12-28T09:10:07.741Z,61.46
2022-12-28T09:11:10.887Z,61.78
2022-12-28T09:12:11.246Z,62.79
2022-12-28T09:13:11.499Z,64.06
2022-12-28T09:14:20.390Z,65.28
2022-12-28T09:15:23.721Z,65.65
2022-12-28T09:16:26.149Z,65.08
2022-12-28T09:17:26.680Z,64.08
2022-12-28T09:18:27.078Z,62.58
2022-12-28T09:19:27.483Z,61.39
2022-12-28T09:20:28.033Z,60.33
2022-12-28T09:21:31.051Z,59.61
2022-12-28T09:22:31.324Z,58.03
2022-12-28T09:23:31.595Z,56.43
2022-12-28T09:24:32.002Z,55.81
2022-12-28T09:25:33.556Z,56.64
2022-12-28T09:26:36.016Z,57.37
2022-12-28T09:27:36.711Z,57.92
2022-12-28T09:28:37.805Z,58.60
2022-12-28T09:29:38.051Z,59.34
2022-12-28T09:30:38.411Z,60.69
2022-12-28T09:31:40.317Z,61.27
2022-12-28T09:32:40.736Z,62.25
2022-12-28T09:35:20.228Z,64.71
2022-12-28T09:36:20.566Z,64.60
2022-12-28T09:37:20.950Z,63.93
2022-12-28T09:38:21.352Z,62.79
2022-12-28T09:39:23.861Z,61.52
2022-12-28T09:40:24.349Z,60.34
2022-12-28T09:41:27.630Z,59.35
2022-12-28T09:42:30.161Z,58.08
2022-12-28T09:43:31.479Z,56.84
2022-12-28T09:44:34.637Z,56.22
2022-12-28T09:45:35.720Z,56.49
2022-12-28T09:46:43.907Z,57.55
2022-12-28T09:47:55.381Z,58.79
2022-12-28T09:48:58.262Z,59.59
2022-12-28T09:50:01.397Z,60.27
2022-12-28T09:51:02.186Z,60.71
2022-12-28T09:52:14.643Z,61.64
2022-12-28T09:53:28.727Z,62.97
2022-12-28T09:54:29.564Z,64.26
2022-12-28T09:55:32.137Z,64.78
2022-12-28T09:56:37.821Z,64.28
2022-12-28T09:57:41.691Z,62.97
2022-12-28T09:58:47.749Z,62.34
2022-12-28T09:59:48.519Z,60.91
2022-12-28T10:00:55.191Z,60.09
2022-12-28T10:01:59.967Z,58.80
2022-12-28T10:03:03.473Z,56.93
2022-12-28T10:04:04.138Z,55.92
2022-12-28T10:05:04.987Z,56.55
2022-12-28T10:06:13.594Z,56.90
2022-12-28T10:07:14.033Z,57.55
2022-12-28T10:08:16.677Z,57.92
2022-12-28T10:09:24.201Z,58.70
2022-12-28T10:10:25.587Z,59.57
2022-12-28T10:11:40.371Z,61.02
2022-12-28T10:12:42.938Z,62.37
2022-12-28T10:13:59.455Z,63.24
2022-12-28T10:15:00.650Z,64.09
2022-12-28T10:16:03.879Z,63.94
2022-12-28T10:17:06.650Z,63.26
2022-12-28T10:18:07.105Z,62.14
2022-12-28T10:19:07.676Z,60.40
2022-12-28T10:20:14.660Z,59.46
2022-12-28T10:21:20.242Z,57.99
2022-12-28T10:22:22.529Z,56.24
2022-12-28T10:23:25.543Z,56.51
2022-12-28T10:24:31.864Z,57.28
2022-12-28T10:25:33.220Z,57.82
2022-12-28T10:26:34.744Z,59.08
2022-12-28T10:27:34.943Z,59.79
2022-12-28T10:28:49.000Z,59.88
2022-12-28T10:29:53.430Z,60.84
2022-12-28T10:31:08.134Z,61.38
2022-12-28T10:32:11.350Z,62.61
2022-12-28T10:33:16.377Z,63.78
2022-12-28T10:34:21.990Z,64.55
2022-12-28T10:35:41.143Z,64.27
2022-12-28T10:36:42.129Z,62.48
2022-12-28T10:37:44.045Z,60.84
2022-12-28T10:38:49.987Z,60.21
2022-12-28T10:40:03.137Z,58.07
2022-12-28T10:41:09.763Z,56.46
2022-12-28T10:42:20.515Z,56.06
2022-12-28T10:43:21.081Z,56.42
2022-12-28T10:44:41.107Z,57.17
2022-12-28T10:45:47.959Z,58.42
2022-12-28T10:46:58.183Z,59.70
2022-12-28T10:47:58.613Z,60.53
2022-12-28T10:49:02.627Z,61.05
2022-12-28T10:50:36.507Z,62.53
2022-12-28T10:51:26.131Z,63.48
2022-12-28T10:52:27.094Z,63.90
2022-12-28T10:53:31.448Z,63.58
2022-12-28T10:54:33.873Z,62.10
2022-12-28T10:55:34.167Z,60.26
2022-12-28T10:56:47.623Z,59.56
2022-12-28T10:58:27.055Z,57.35
2022-12-28T10:59:11.809Z,56.01
2022-12-28T11:00:20.142Z,55.82
2022-12-28T11:01:26.145Z,56.33
2022-12-28T11:02:28.560Z,57.40
2022-12-28T11:03:31.138Z,58.38
2022-12-28T11:04:31.433Z,59.94
2022-12-28T11:05:31.715Z,60.65
2022-12-28T11:06:51.063Z,60.79
2022-12-28T11:08:03.957Z,61.69
2022-12-28T11:09:04.255Z,61.83
2022-12-28T11:10:23.033Z,63.22
2022-12-28T11:11:23.276Z,64.17
2022-12-28T11:12:25.916Z,64.43
2022-12-28T11:13:26.642Z,63.72
2022-12-28T11:14:34.262Z,62.33
2022-12-28T11:15:35.000Z,61.34
2022-12-28T11:16:36.991Z,59.79
2022-12-28T11:17:37.383Z,58.32
2022-12-28T11:18:38.152Z,56.62
2022-12-28T11:19:38.698Z,55.44
2022-12-28T11:20:42.892Z,55.46
2022-12-28T11:21:43.916Z,55.75
2022-12-28T11:22:44.680Z,56.54
2022-12-28T11:23:46.146Z,56.98
2022-12-28T11:24:46.648Z,57.56
2022-12-28T11:25:47.227Z,58.33
2022-12-28T11:26:49.610Z,59.52
2022-12-28T11:27:50.161Z,59.77
2022-12-28T11:28:52.254Z,59.93
2022-12-28T11:29:54.651Z,60.66
2022-12-28T11:30:56.619Z,60.84
2022-12-28T11:32:23.396Z,61.58
2022-12-28T11:33:42.491Z,61.85
2022-12-28T11:34:43.975Z,62.61
2022-12-28T11:35:44.808Z,63.47
2022-12-28T11:36:46.271Z,63.74
2022-12-28T11:37:51.070Z,63.53
2022-12-28T11:38:52.949Z,62.94
2022-12-28T11:39:53.322Z,62.05
2022-12-28T11:40:54.455Z,60.44
2022-12-28T11:43:39.229Z,56.09
2022-12-28T11:44:39.502Z,55.41
2022-12-28T11:45:53.986Z,55.65
2022-12-28T11:47:13.359Z,56.46
2022-12-28T11:48:32.717Z,57.25
2022-12-28T11:49:34.872Z,58.65
2022-12-28T11:50:38.531Z,59.31
2022-12-28T11:51:38.936Z,59.66
2022-12-28T11:52:47.261Z,60.32
2022-12-28T11:53:49.813Z,60.71
2022-12-28T11:54:52.488Z,61.36
2022-12-28T11:56:07.038Z,61.76
2022-12-28T11:57:07.454Z,62.58
2022-12-28T11:58:33.190Z,63.20
2022-12-28T11:59:34.988Z,63.66
2022-12-28T12:00:38.499Z,63.24
2022-12-28T12:01:40.388Z,62.02
2022-12-28T12:02:40.915Z,60.97
2022-12-28T12:03:56.650Z,59.54
2022-12-28T12:05:05.110Z,57.89
2022-12-28T12:06:08.441Z,55.34
2022-12-28T12:07:16.839Z,54.75
2022-12-28T12:08:17.459Z,55.27
2022-12-28T12:09:26.370Z,56.28
2022-12-28T12:10:30.719Z,56.75
2022-12-28T12:11:32.736Z,57.11
2022-12-28T12:12:49.133Z,57.45
2022-12-28T12:13:55.388Z,58.27
2022-12-28T12:15:16.607Z,58.90
2022-12-28T12:16:26.358Z,59.30
2022-12-28T12:17:43.113Z,60.08
2022-12-28T12:18:47.822Z,60.80
2022-12-28T12:19:51.785Z,61.24
2022-12-28T12:20:56.650Z,61.55
2022-12-28T12:22:03.193Z,61.89
2022-12-28T12:23:24.389Z,61.81
2022-12-28T12:24:45.070Z,62.71
2022-12-28T12:25:53.455Z,63.25
2022-12-28T12:27:04.087Z,63.29
2022-12-28T12:28:12.451Z,61.53
2022-12-28T12:29:12.758Z,60.24
2022-12-28T12:30:15.829Z,57.81
2022-12-28T12:31:24.118Z,55.55
2022-12-28T12:32:27.482Z,54.80
2022-12-28T12:33:33.834Z,55.29
2022-12-28T12:34:41.622Z,55.71
2022-12-28T12:36:02.592Z,56.51
2022-12-28T12:37:18.974Z,57.24
2022-12-28T12:38:31.972Z,57.59
2022-12-28T12:39:42.334Z,58.15
2022-12-28T12:41:09.943Z,58.89
2022-12-28T12:42:26.383Z,59.43
2022-12-28T12:43:26.635Z,60.48
2022-12-28T12:44:39.879Z,60.79
2022-12-28T12:45:59.243Z,60.88
2022-12-28T12:47:13.439Z,61.55
2022-12-28T12:48:32.572Z,61.58
2022-12-28T12:49:47.164Z,61.87
2022-12-28T12:50:50.100Z,62.00
2022-12-28T12:52:13.644Z,62.19
2022-12-28T12:53:29.049Z,62.23
2022-12-28T12:54:50.433Z,62.90
2022-12-28T12:56:01.975Z,63.12
2022-12-28T12:57:11.401Z,63.39
2022-12-28T12:58:21.561Z,59.74
2022-12-28T12:59:33.731Z,57.46
2022-12-28T13:00:53.402Z,55.88
2022-12-28T13:02:22.961Z,55.60
2022-12-28T13:03:33.559Z,56.21
2022-12-28T13:04:34.792Z,56.50
2022-12-28T13:05:38.549Z,56.63
2022-12-28T13:06:38.962Z,57.14
2022-12-28T13:07:40.003Z,58.27
2022-12-28T13:08:45.405Z,58.74
2022-12-28T13:09:47.436Z,58.96
2022-12-28T13:10:48.684Z,58.86
2022-12-28T13:11:50.103Z,59.26
2022-12-28T13:12:53.149Z,59.74
2022-12-28T13:13:53.954Z,60.10
2022-12-28T13:14:59.982Z,60.39
2022-12-28T13:16:03.416Z,60.47
2022-12-28T13:17:09.274Z,60.36
2022-12-28T13:18:44.078Z,60.81
2022-12-28T13:19:38.729Z,60.84
2022-12-28T13:20:39.096Z,60.93
2022-12-28T13:21:44.014Z,61.46
2022-12-28T13:22:46.237Z,61.91
2022-12-28T13:23:47.162Z,62.07
2022-12-28T13:24:47.574Z,62.12
2022-12-28T13:25:49.761Z,62.07
2022-12-28T13:26:51.005Z,62.19
2022-12-28T13:27:51.490Z,62.31
2022-12-28T13:28:54.631Z,62.46
2022-12-28T13:29:55.021Z,63.14
2022-12-28T13:30:58.626Z,63.69
2022-12-28T13:31:58.977Z,63.40
2022-12-28T13:33:02.413Z,61.16
2022-12-28T13:34:25.806Z,59.22
2022-12-28T13:35:28.044Z,56.57
2022-12-28T13:36:28.492Z,55.57
2022-12-28T13:37:28.899Z,55.29
2022-12-28T13:38:29.443Z,55.74
2022-12-28T13:39:35.330Z,56.03
2022-12-28T13:40:48.202Z,57.08
2022-12-28T13:41:50.971Z,57.48
2022-12-28T13:43:00.339Z,58.41
2022-12-28T13:44:10.257Z,59.22
2022-12-28T13:45:15.172Z,59.08
2022-12-28T13:46:18.887Z,59.28
2022-12-28T13:47:49.380Z,60.14
2022-12-28T13:48:54.410Z,60.62
2022-12-28T13:49:54.775Z,60.48
2022-12-28T13:50:55.550Z,60.61
2022-12-28T13:51:56.384Z,61.20
2022-12-28T13:53:08.799Z,61.64
2022-12-28T13:54:10.413Z,61.56
2022-12-28T13:55:17.328Z,62.08
2022-12-28T13:56:20.172Z,62.48
2022-12-28T13:58:50.620Z,62.89
2022-12-28T13:59:54.057Z,62.77
2022-12-28T14:00:57.913Z,61.72
2022-12-28T14:01:58.432Z,59.60
2022-12-28T14:02:59.478Z,57.28